createdAt,value
2023-02-13T00:02:46.474Z,706.82
2023-02-13T00:05:53.310Z,718.38
2023-02-13T00:08:59.244Z,738.44
2023-02-13T00:12:06.225Z,726.83
2023-02-13T00:15:14.841Z,716.27
2023-02-13T00:18:21.572Z,727.30
2023-02-13T00:21:27.473Z,769.70
2023-02-13T00:24:34.193Z,748.42
2023-02-13T00:27:40.052Z,733.30
2023-02-13T00:30:49.418Z,697.67
2023-02-13T00:33:55.766Z,696.46
2023-02-13T00:37:02.393Z,659.75
2023-02-13T00:40:11.229Z,627.86
2023-02-13T00:43:20.295Z,601.64
2023-02-13T00:46:29.045Z,586.14
2023-02-13T00:49:35.830Z,603.68
2023-02-13T00:52:41.754Z,598.11
2023-02-13T00:55:48.649Z,582.73
2023-02-13T00:58:54.577Z,580.90
2023-02-13T01:02:03.859Z,587.16
2023-02-13T01:05:11.575Z,599.18
2023-02-13T01:08:20.537Z,604.74
2023-02-13T01:11:26.722Z,612.31
2023-02-13T01:14:33.448Z,634.25
2023-02-13T01:17:42.494Z,655.22
2023-02-13T01:21:00.855Z,665.63
2023-02-13T01:24:09.049Z,667.51
2023-02-13T01:27:17.224Z,664.64
2023-02-13T01:30:24.502Z,630.36
2023-02-13T01:33:34.862Z,629.77
2023-02-13T01:36:40.698Z,640.07
2023-02-13T01:39:47.380Z,624.54
2023-02-13T01:42:53.335Z,638.16
2023-02-13T01:46:03.170Z,625.15
2023-02-13T01:49:29.448Z,628.15
2023-02-13T01:52:40.616Z,624.35
2023-02-13T01:55:55.959Z,600.14
2023-02-13T01:59:10.351Z,594.12
2023-02-13T02:02:17.764Z,588.13
2023-02-13T02:05:33.813Z,575.85
2023-02-13T02:08:40.168Z,568.11
2023-02-13T02:12:02.317Z,568.08
2023-02-13T02:15:12.068Z,562.13
2023-02-13T02:18:21.868Z,567.93
2023-02-13T02:22:19.337Z,592.86
2023-02-13T02:26:20.468Z,565.79
2023-02-13T02:30:11.698Z,534.57
2023-02-13T02:33:43.405Z,510.32
2023-02-13T02:37:14.744Z,497.99
2023-02-13T02:40:36.819Z,479.83
2023-02-13T02:44:01.871Z,479.42
2023-02-13T02:47:35.233Z,466.23
2023-02-13T02:50:56.862Z,421.50
2023-02-13T02:54:26.693Z,396.93
2023-02-13T02:57:49.361Z,394.99
2023-02-13T03:01:28.934Z,397.10
2023-02-13T03:04:56.191Z,406.29
2023-02-13T03:08:07.365Z,391.35
2023-02-13T03:11:41.572Z,411.68
2023-02-13T03:14:47.545Z,390.19
2023-02-13T03:18:06.971Z,377.79
2023-02-13T03:21:38.391Z,383.26
2023-02-13T03:25:05.498Z,368.96
2023-02-13T03:28:43.201Z,334.33
2023-02-13T03:32:02.628Z,317.90
2023-02-13T03:35:41.816Z,306.79
2023-02-13T03:39:01.548Z,296.27
2023-02-13T03:42:22.335Z,306.81
2023-02-13T03:45:47.946Z,273.19
2023-02-13T03:49:08.772Z,257.43
2023-02-13T03:52:28.099Z,241.37
2023-02-13T03:55:54.387Z,255.17
2023-02-13T03:59:17.851Z,231.85
2023-02-13T04:02:35.767Z,232.11
2023-02-13T04:05:50.153Z,244.94
2023-02-13T04:08:56.286Z,239.96
2023-02-13T04:12:17.357Z,254.89
2023-02-13T04:15:37.594Z,269.55
2023-02-13T04:18:47.053Z,270.42
2023-02-13T04:22:01.235Z,275.70
2023-02-13T04:25:08.633Z,273.43
2023-02-13T04:28:14.687Z,260.94
2023-02-13T04:31:24.043Z,263.87
2023-02-13T04:34:30.078Z,259.05
2023-02-13T04:37:36.747Z,270.07
2023-02-13T04:40:42.561Z,249.79
2023-02-13T04:43:49.332Z,231.22
2023-02-13T04:46:57.803Z,235.77
2023-02-13T04:50:04.610Z,229.24
2023-02-13T04:53:10.615Z,223.29
2023-02-13T04:56:19.634Z,239.92
2023-02-13T04:59:25.808Z,226.85
2023-02-13T05:02:35.636Z,224.69
2023-02-13T05:05:43.479Z,235.99
2023-02-13T05:08:50.392Z,302.67
2023-02-13T05:11:57.016Z,411.65
2023-02-13T05:15:03.712Z,448.21
2023-02-13T05:18:12.162Z,346.65
2023-02-13T05:21:31.244Z,357.08
2023-02-13T05:24:37.048Z,352.38
2023-02-13T05:27:43.830Z,355.05
2023-02-13T05:30:50.064Z,419.96
2023-02-13T05:33:59.443Z,491.36
2023-02-13T05:37:05.501Z,523.16
2023-02-13T05:40:14.078Z,504.36
2023-02-13T05:43:19.951Z,482.81
2023-02-13T05:46:27.151Z,492.70
2023-02-13T05:49:35.607Z,514.40
2023-02-13T05:52:42.282Z,527.53
2023-02-13T05:55:48.170Z,567.55
2023-02-13T05:58:55.942Z,561.03
2023-02-13T06:02:01.907Z,643.70
2023-02-13T06:05:11.630Z,730.00
2023-02-13T06:08:17.488Z,645.25
2023-02-13T06:11:24.644Z,597.27
2023-02-13T06:14:30.509Z,641.17
2023-02-13T06:17:37.307Z,660.05
2023-02-13T06:20:45.854Z,523.43
2023-02-13T06:23:52.601Z,472.54
2023-02-13T06:26:58.784Z,449.53
2023-02-13T06:30:05.528Z,418.49
2023-02-13T06:33:11.699Z,408.61
2023-02-13T06:36:21.118Z,474.57
2023-02-13T06:39:27.000Z,659.23
2023-02-13T06:42:33.679Z,669.80
2023-02-13T06:45:40.771Z,623.79
2023-02-13T06:48:56.550Z,586.87
2023-02-13T06:52:05.817Z,550.60
2023-02-13T06:55:12.537Z,523.69
2023-02-13T06:58:21.695Z,511.77
2023-02-13T07:01:28.539Z,567.18
2023-02-13T07:04:34.435Z,567.71
2023-02-13T07:07:50.728Z,530.51
2023-02-13T07:10:57.026Z,460.31
2023-02-13T07:14:04.959Z,419.57
2023-02-13T07:17:11.697Z,405.08
2023-02-13T07:20:18.602Z,409.03
2023-02-13T07:23:27.391Z,421.43
2023-02-13T07:26:36.003Z,460.63
2023-02-13T07:29:41.953Z,433.56
2023-02-13T07:32:48.738Z,414.98
2023-02-13T07:35:56.284Z,409.51
2023-02-13T07:39:11.769Z,404.25
2023-02-13T07:42:17.572Z,439.46
2023-02-13T07:45:24.413Z,447.59
2023-02-13T07:48:32.016Z,378.22
2023-02-13T07:51:38.793Z,448.36
2023-02-13T07:54:50.090Z,513.70
2023-02-13T07:57:57.054Z,526.52
2023-02-13T08:01:08.355Z,425.19
2023-02-13T08:04:15.491Z,489.13
2023-02-13T08:07:21.595Z,533.62
2023-02-13T08:10:45.008Z,489.71
2023-02-13T08:13:50.923Z,514.49
2023-02-13T08:16:58.584Z,434.64
2023-02-13T08:20:04.695Z,487.97
2023-02-13T08:23:14.975Z,550.73
2023-02-13T08:26:23.536Z,603.17
2023-02-13T08:29:30.344Z,582.93
2023-02-13T08:32:52.828Z,572.12
2023-02-13T08:36:00.583Z,495.54
2023-02-13T08:39:06.876Z,533.45
2023-02-13T08:42:16.577Z,502.14
2023-02-13T08:45:22.472Z,413.28
2023-02-13T08:48:29.363Z,392.92
2023-02-13T08:51:35.758Z,408.89
2023-02-13T08:54:42.579Z,452.90
2023-02-13T08:57:51.113Z,467.53
2023-02-13T09:00:58.088Z,471.75
2023-02-13T09:04:03.967Z,461.57
2023-02-13T09:07:10.751Z,425.48
2023-02-13T09:10:16.614Z,400.33
2023-02-13T09:13:25.959Z,355.65
2023-02-13T09:16:32.013Z,359.05
2023-02-13T09:19:38.687Z,354.29
2023-02-13T09:22:45.260Z,367.63
2023-02-13T09:25:51.983Z,382.78
2023-02-13T09:29:00.506Z,362.40
2023-02-13T09:32:09.115Z,368.06
2023-02-13T09:35:15.568Z,393.54
2023-02-13T09:38:22.314Z,440.54
2023-02-13T09:41:34.244Z,408.18
2023-02-13T09:44:48.721Z,375.53
2023-02-13T09:47:55.033Z,330.85
2023-02-13T09:51:03.521Z,338.99
2023-02-13T09:54:16.787Z,290.84
2023-02-13T09:57:34.172Z,292.04
2023-02-13T10:00:49.043Z,291.04
2023-02-13T10:04:39.689Z,297.17
2023-02-13T10:08:01.118Z,366.63
2023-02-13T10:11:32.345Z,405.29
2023-02-13T10:14:57.238Z,418.51
2023-02-13T10:18:17.992Z,422.88
2023-02-13T10:21:31.561Z,264.09
2023-02-13T10:24:48.169Z,288.33
2023-02-13T10:28:04.449Z,307.36
2023-02-13T10:31:18.780Z,298.84
2023-02-13T10:34:35.353Z,308.36
2023-02-13T10:37:42.876Z,313.71
2023-02-13T10:41:08.385Z,301.34
2023-02-13T10:44:49.666Z,281.34
2023-02-13T10:48:18.177Z,265.02
2023-02-13T10:51:41.101Z,290.30
2023-02-13T10:55:27.870Z,283.50
2023-02-13T10:58:57.811Z,277.96
2023-02-13T11:02:26.539Z,283.80
2023-02-13T11:05:39.913Z,296.67
2023-02-13T11:08:51.389Z,290.77
2023-02-13T11:11:58.498Z,252.73
2023-02-13T11:15:07.777Z,260.21
2023-02-13T11:18:24.878Z,262.84
2023-02-13T11:21:38.896Z,291.59
2023-02-13T11:25:02.630Z,326.28
2023-02-13T11:28:21.248Z,307.98
2023-02-13T11:31:36.366Z,341.62
2023-02-13T11:34:42.568Z,290.45
2023-02-13T11:37:49.302Z,278.23
2023-02-13T11:41:13.250Z,287.71
2023-02-13T11:44:30.496Z,272.37
2023-02-13T11:47:42.136Z,270.41
2023-02-13T11:50:56.890Z,321.53
2023-02-13T11:54:03.496Z,307.41
2023-02-13T11:57:26.258Z,305.11
2023-02-13T12:00:40.428Z,312.18
2023-02-13T12:03:47.214Z,326.38
2023-02-13T12:07:05.649Z,337.50
2023-02-13T12:10:24.703Z,331.47
2023-02-13T12:13:40.446Z,323.59
2023-02-13T12:16:53.855Z,311.14
2023-02-13T12:20:00.382Z,270.67
2023-02-13T12:23:27.910Z,260.58
2023-02-13T12:26:43.721Z,256.75
2023-02-13T12:30:28.672Z,219.69
2023-02-13T12:34:15.805Z,204.64
2023-02-13T12:37:50.328Z,185.94
2023-02-13T12:41:22.377Z,185.22
2023-02-13T12:44:57.112Z,177.27
2023-02-13T12:48:31.375Z,170.08
2023-02-13T12:51:56.578Z,185.26
2023-02-13T12:55:36.169Z,180.19
2023-02-13T12:59:03.970Z,193.10
2023-02-13T13:03:06.461Z,188.41
2023-02-13T13:06:53.756Z,200.12
2023-02-13T13:10:34.153Z,173.26
2023-02-13T13:14:00.956Z,171.76
2023-02-13T13:17:27.262Z,180.66
2023-02-13T13:21:00.107Z,192.21
2023-02-13T13:24:36.990Z,191.99
2023-02-13T13:27:50.811Z,227.70
2023-02-13T13:30:58.890Z,238.59
2023-02-13T13:34:16.862Z,234.53
2023-02-13T13:37:38.725Z,220.08
2023-02-13T13:41:00.036Z,231.39
2023-02-13T13:44:41.027Z,243.27
2023-02-13T13:48:38.415Z,244.47
2023-02-13T13:51:44.478Z,247.59
2023-02-13T13:54:52.447Z,259.99
2023-02-13T13:58:06.812Z,293.03
2023-02-13T14:01:34.827Z,339.54
2023-02-13T14:04:44.390Z,355.81
2023-02-13T14:07:55.432Z,368.74
2023-02-13T14:11:07.217Z,390.26
2023-02-13T14:14:58.310Z,348.91
2023-02-13T14:18:11.487Z,321.29
2023-02-13T14:21:27.715Z,288.93
2023-02-13T14:24:36.311Z,400.66
2023-02-13T14:27:44.203Z,327.40
2023-02-13T14:30:56.888Z,254.83
2023-02-13T14:34:08.508Z,331.32
2023-02-13T14:37:30.302Z,348.36
2023-02-13T14:40:52.650Z,208.05
2023-02-13T14:43:59.374Z,150.96
2023-02-13T14:47:27.242Z,156.99
2023-02-13T14:50:51.027Z,141.25
2023-02-13T14:54:08.352Z,124.93
2023-02-13T14:57:24.699Z,210.55
2023-02-13T15:00:44.523Z,274.77
2023-02-13T15:04:06.396Z,277.56
2023-02-13T15:07:24.275Z,176.49
2023-02-13T15:10:47.152Z,221.80
2023-02-13T15:13:54.104Z,327.83
2023-02-13T15:17:09.167Z,393.24
2023-02-13T15:20:30.451Z,312.06
2023-02-13T15:23:37.981Z,322.52
2023-02-13T15:26:45.079Z,366.37
2023-02-13T15:30:05.004Z,279.29
2023-02-13T15:33:22.528Z,306.53
2023-02-13T15:36:43.358Z,288.86
2023-02-13T15:39:50.088Z,274.16
2023-02-13T15:42:59.213Z,207.20
2023-02-13T15:46:21.579Z,226.70
2023-02-13T15:49:30.483Z,316.20
2023-02-13T15:52:42.698Z,291.41
2023-02-13T15:56:02.264Z,338.52
2023-02-13T15:59:09.428Z,255.76
2023-02-13T16:02:22.737Z,202.78
2023-02-13T16:05:40.367Z,284.30
2023-02-13T16:08:58.162Z,294.32
2023-02-13T16:12:10.127Z,237.06
2023-02-13T16:15:23.965Z,367.77
2023-02-13T16:18:30.678Z,353.24
2023-02-13T16:21:36.872Z,365.47
2023-02-13T16:24:53.879Z,401.41
2023-02-13T16:28:05.913Z,309.76
2023-02-13T16:31:19.993Z,254.06
2023-02-13T16:34:31.179Z,324.57
2023-02-13T16:37:37.886Z,384.53
2023-02-13T16:40:48.952Z,293.06
2023-02-13T16:43:57.473Z,231.36
2023-02-13T16:47:06.018Z,301.65
2023-02-13T16:50:19.221Z,284.24
2023-02-13T16:53:25.309Z,298.53
2023-02-13T16:56:43.515Z,276.52
2023-02-13T17:00:22.680Z,222.08
2023-02-13T17:03:31.175Z,297.74
2023-02-13T17:06:37.074Z,248.45
2023-02-13T17:09:44.145Z,248.54
2023-02-13T17:12:54.692Z,259.99
2023-02-13T17:16:01.708Z,235.49
2023-02-13T17:19:07.865Z,223.70
2023-02-13T17:22:36.426Z,219.06
2023-02-13T17:25:43.826Z,224.94
2023-02-13T17:28:53.218Z,210.55
2023-02-13T17:32:00.879Z,227.41
2023-02-13T17:35:08.259Z,223.82
2023-02-13T17:38:17.581Z,221.85
2023-02-13T17:41:26.553Z,215.65
2023-02-13T17:44:35.243Z,216.47
2023-02-13T17:47:41.963Z,200.57
2023-02-13T17:50:48.521Z,206.98
2023-02-13T17:53:56.826Z,188.99
2023-02-13T17:57:03.108Z,191.76
2023-02-13T18:00:15.110Z,219.26
2023-02-13T18:03:21.081Z,220.33
2023-02-13T18:06:27.862Z,215.36
2023-02-13T18:09:33.897Z,191.22
2023-02-13T18:12:41.892Z,204.67
2023-02-13T18:15:50.522Z,204.70
2023-02-13T18:18:57.416Z,202.05
2023-02-13T18:22:03.427Z,219.53
2023-02-13T18:25:12.063Z,223.33
2023-02-13T18:28:18.035Z,272.07
2023-02-13T18:31:27.446Z,323.62
2023-02-13T18:34:33.442Z,378.20
2023-02-13T18:37:40.656Z,269.51
2023-02-13T18:40:46.687Z,240.95
2023-02-13T18:43:53.459Z,213.61
2023-02-13T18:47:04.987Z,229.55
2023-02-13T18:50:13.777Z,212.92
2023-02-13T18:53:19.825Z,221.86
2023-02-13T18:56:26.717Z,241.59
2023-02-13T18:59:32.832Z,273.27
2023-02-13T19:02:42.294Z,321.47
2023-02-13T19:05:48.233Z,263.34
2023-02-13T19:08:55.124Z,338.51
2023-02-13T19:12:01.206Z,496.05
2023-02-13T19:15:16.845Z,343.71
2023-02-13T19:18:27.723Z,309.59
2023-02-13T19:21:37.830Z,280.98
2023-02-13T19:24:44.523Z,299.59
2023-02-13T19:27:51.748Z,279.89
2023-02-13T19:30:58.323Z,263.00
2023-02-13T19:34:11.617Z,279.11
2023-02-13T19:37:17.717Z,287.04
2023-02-13T19:40:24.517Z,287.75
2023-02-13T19:43:32.286Z,278.65
2023-02-13T19:46:45.924Z,275.93
2023-02-13T19:49:57.861Z,270.12
2023-02-13T19:53:07.922Z,270.94
2023-02-13T19:56:15.391Z,262.77
2023-02-13T19:59:26.583Z,255.75
2023-02-13T20:02:37.908Z,238.42
2023-02-13T20:05:50.124Z,240.49
2023-02-13T20:08:56.299Z,235.96
2023-02-13T20:12:03.123Z,228.48
2023-02-13T20:15:10.405Z,238.50
2023-02-13T20:18:17.546Z,239.42
2023-02-13T20:21:26.461Z,227.94
2023-02-13T20:24:33.342Z,244.44
2023-02-13T20:27:42.699Z,254.26
2023-02-13T20:30:51.753Z,277.47
2023-02-13T20:33:58.736Z,334.12
2023-02-13T20:37:08.173Z,315.88
2023-02-13T20:40:15.991Z,302.67
2023-02-13T20:43:30.135Z,293.91
2023-02-13T20:46:43.521Z,290.52
2023-02-13T20:49:51.154Z,274.79
2023-02-13T20:52:59.640Z,263.52
2023-02-13T20:56:10.841Z,270.17
2023-02-13T20:59:16.733Z,268.42
2023-02-13T21:02:23.479Z,283.04
2023-02-13T21:05:39.936Z,292.40
2023-02-13T21:08:50.008Z,297.29
2023-02-13T21:11:55.971Z,274.14
2023-02-13T21:15:02.663Z,257.80
2023-02-13T21:18:09.770Z,260.45
2023-02-13T21:21:16.971Z,278.07
2023-02-13T21:24:26.655Z,272.83
2023-02-13T21:27:33.408Z,259.40
2023-02-13T21:30:40.058Z,256.54
2023-02-13T21:33:46.985Z,263.83
2023-02-13T21:36:53.178Z,281.29
2023-02-13T21:40:02.542Z,318.72
2023-02-13T21:43:08.545Z,289.22
2023-02-13T21:46:18.684Z,286.88
2023-02-13T21:49:25.293Z,279.40
2023-02-13T21:52:32.191Z,280.28
2023-02-13T21:55:40.786Z,294.00
2023-02-13T21:58:49.291Z,294.21
2023-02-13T22:01:58.296Z,279.64
2023-02-13T22:05:05.150Z,297.45
2023-02-13T22:08:13.910Z,273.18
2023-02-13T22:11:23.411Z,259.11
2023-02-13T22:14:29.317Z,251.76
2023-02-13T22:17:37.918Z,250.84
2023-02-13T22:20:43.843Z,254.93
2023-02-13T22:23:52.681Z,264.09
2023-02-13T22:27:01.287Z,255.48
2023-02-13T22:30:09.734Z,262.36
2023-02-13T22:33:17.049Z,260.57
2023-02-13T22:36:24.415Z,262.23
2023-02-13T22:39:30.372Z,265.84
2023-02-13T22:42:39.738Z,275.82
2023-02-13T22:45:45.762Z,290.06
2023-02-13T22:48:55.025Z,287.23
2023-02-13T22:52:01.048Z,297.32
2023-02-13T22:55:08.748Z,288.18
2023-02-13T22:58:17.382Z,281.08
2023-02-13T23:01:27.486Z,298.84
2023-02-13T23:04:34.130Z,297.89
2023-02-13T23:07:40.869Z,296.07
2023-02-13T23:11:08.142Z,300.34
2023-02-13T23:14:16.609Z,303.70
2023-02-13T23:17:34.880Z,311.06
2023-02-13T23:20:41.970Z,298.45
2023-02-13T23:23:48.019Z,298.65
2023-02-13T23:26:55.253Z,298.31
2023-02-13T23:30:04.774Z,320.39
2023-02-13T23:33:11.686Z,410.08
2023-02-13T23:36:17.539Z,415.36
2023-02-13T23:39:24.716Z,410.14
2023-02-13T23:42:31.017Z,401.02
2023-02-13T23:45:40.724Z,430.58
2023-02-13T23:48:46.911Z,386.94
2023-02-13T23:51:53.704Z,340.46
2023-02-13T23:54:59.562Z,306.43
2023-02-13T23:58:06.320Z,317.00
